Time;durP1;ratioP1;P1;durP2;ratioP2;P2;SDS_P1;SDS_P2;PMS_P1;PMS_P2;Temp;Humidity;BMP_temperature;BMP_pressure;BME280_temperature;BME280_humidity;BME280_pressure;Samples;Min_cycle;Max_cycle;Signal;HPM_P1;HPM_P2
2022/01/16 00:04:06;;;;;;;;;;;2.20;99.90;;;;;;5115240;28;19908;-77
2022/01/16 00:04:55;;;;;;;;;;;2.20;99.90;;;;;;5115711;28;19926;-74
2022/01/16 00:07:20;;;;;;;;;;;2.10;99.90;;;;;;5114916;28;19908;-75
2022/01/16 00:09:46;;;;;;;;;;;2.10;99.90;;;;;;5115075;28;20481;-74
2022/01/16 00:12:11;;;;;;;;;;;2.20;99.90;;;;;;5114984;28;20338;-74
2022/01/16 00:14:37;;;;;;;;;;;2.20;99.90;;;;;;5115372;28;20322;-74
2022/01/16 00:17:04;;;;;;;;;;;2.20;99.90;;;;;;5114760;28;20002;-74
2022/01/16 00:19:30;;;;;;;;;;;2.20;99.90;;;;;;5114874;28;20327;-75
2022/01/16 00:21:57;;;;;;;;;;;2.20;99.90;;;;;;5114802;28;19942;-74
2022/01/16 00:24:23;;;;;;;;;;;2.20;99.90;;;;;;5115045;28;19919;-74
2022/01/16 00:26:48;;;;;;;;;;;2.10;99.90;;;;;;5113220;28;19927;-75
2022/01/16 00:29:14;;;;;;;;;;;2.20;99.90;;;;;;5114801;28;20013;-76
2022/01/16 00:31:40;;;;;;;;;;;2.20;99.90;;;;;;5114433;28;20335;-77
2022/01/16 00:34:06;;;;;;;;;;;2.20;99.90;;;;;;5114724;28;20018;-74
2022/01/16 00:36:32;;;;;;;;;;;2.10;99.90;;;;;;5113088;28;20358;-74
2022/01/16 00:38:58;;;;;;;;;;;2.20;99.90;;;;;;5093922;28;19908;-74
2022/01/16 00:41:26;;;;;;;;;;;2.10;99.90;;;;;;5092903;28;19970;-74
2022/01/16 00:43:53;;;;;;;;;;;3.70;99.90;;;;;;5114036;28;19916;-76
2022/01/16 00:46:19;;;;;;;;;;;2.10;99.90;;;;;;5112982;28;20422;-73
2022/01/16 00:48:45;;;;;;;;;;;2.10;99.90;;;;;;5112797;28;20015;-74
2022/01/16 00:51:18;;;;;;;;;;;2.10;99.90;;;;;;5112981;28;19916;-74
2022/01/16 00:53:44;;;;;;;;;;;2.10;99.90;;;;;;5114304;28;20349;-74
2022/01/16 00:56:11;;;;;;;;;;;2.10;99.90;;;;;;5112987;28;19927;-75
2022/01/16 00:58:36;;;;;;;;;;;2.10;99.90;;;;;;5112753;28;19912;-75
2022/01/16 01:01:02;;;;;;;;;;;2.10;99.90;;;;;;5113756;28;20373;-75
2022/01/16 01:03:28;;;;;;;;;;;2.10;99.90;;;;;;5113488;28;19912;-75
2022/01/16 01:05:54;;;;;;;;;;;2.10;99.90;;;;;;5114255;28;19914;-74
2022/01/16 01:08:20;;;;;;;;;;;2.10;99.90;;;;;;5113263;28;19912;-73
2022/01/16 01:10:51;;;;;;;;;;;2.10;99.90;;;;;;5113411;28;19908;-75
2022/01/16 01:15:51;;;;;;;;;;;2.10;99.90;;;;;;5113574;28;20000;-73
2022/01/16 01:18:18;;;;;;;;;;;2.10;99.90;;;;;;5112373;28;20382;-74
2022/01/16 01:20:46;;;;;;;;;;;2.10;99.90;;;;;;5113231;28;20007;-73
2022/01/16 01:23:13;;;;;;;;;;;2.10;99.90;;;;;;5113312;28;19912;-75
2022/01/16 01:25:39;;;;;;;;;;;2.00;99.90;;;;;;5111949;28;19952;-74
2022/01/16 01:28:06;;;;;;;;;;;2.00;99.90;;;;;;5098616;28;19958;-74
2022/01/16 01:30:32;;;;;;;;;;;2.00;99.90;;;;;;5092958;28;19908;-74
2022/01/16 01:32:58;;;;;;;;;;;2.00;99.90;;;;;;5105160;28;19949;-73
2022/01/16 01:35:24;;;;;;;;;;;2.00;99.90;;;;;;5112135;28;19961;-74
2022/01/16 01:37:50;;;;;;;;;;;2.00;99.90;;;;;;5113550;28;19915;-75
2022/01/16 01:40:26;;;;;;;;;;;2.00;99.90;;;;;;5113258;28;19920;-75
2022/01/16 01:51:12;;;;;;;;;;;2.00;99.90;;;;;;5104018;28;20271;-74
2022/01/16 01:53:39;;;;;;;;;;;2.00;99.90;;;;;;5093839;28;19987;-74
2022/01/16 01:56:05;;;;;;;;;;;2.00;99.90;;;;;;5091400;28;19915;-74
2022/01/16 01:58:30;;;;;;;;;;;1.90;99.90;;;;;;5109179;28;19915;-74
2022/01/16 02:00:56;;;;;;;;;;;1.90;99.90;;;;;;5113029;28;19912;-74
2022/01/16 02:05:48;;;;;;;;;;;1.90;99.90;;;;;;5092822;28;19970;-75
2022/01/16 02:08:13;;;;;;;;;;;1.90;99.90;;;;;;5106412;28;20282;-74
2022/01/16 02:10:40;;;;;;;;;;;1.90;99.90;;;;;;5111275;28;19915;-73
2022/01/16 02:13:08;;;;;;;;;;;1.90;99.90;;;;;;5112316;28;19984;-74
2022/01/16 02:31:41;;;;;;;;;;;1.90;99.90;;;;;;5073941;28;19920;-75
2022/01/16 02:36:53;;;;;;;;;;;1.90;99.90;;;;;;5112094;28;19960;-76
2022/01/16 02:39:24;;;;;;;;;;;1.90;99.90;;;;;;5112045;28;19927;-73
2022/01/16 02:41:52;;;;;;;;;;;1.90;99.90;;;;;;5109254;28;19908;-75
2022/01/16 02:44:23;;;;;;;;;;;1.90;99.90;;;;;;5092264;28;19920;-74
2022/01/16 02:46:49;;;;;;;;;;;1.90;99.90;;;;;;5092709;28;19927;-74
2022/01/16 02:49:35;;;;;;;;;;;1.90;99.90;;;;;;5110605;28;19920;-74
2022/01/16 02:52:02;;;;;;;;;;;1.90;99.90;;;;;;5111458;28;20285;-75
2022/01/16 02:54:29;;;;;;;;;;;1.90;99.90;;;;;;5111578;28;20014;-73
2022/01/16 02:56:54;;;;;;;;;;;1.90;99.90;;;;;;5111689;28;20577;-73
2022/01/16 02:59:21;;;;;;;;;;;1.90;99.90;;;;;;5110070;28;20283;-73
2022/01/16 03:01:48;;;;;;;;;;;1.90;99.90;;;;;;5111591;28;19961;-72
2022/01/16 03:04:13;;;;;;;;;;;1.90;99.90;;;;;;5111724;28;19955;-74
2022/01/16 03:06:39;;;;;;;;;;;1.80;99.90;;;;;;5111463;28;19958;-74
2022/01/16 03:09:07;;;;;;;;;;;1.80;99.90;;;;;;5110119;27;20267;-73
2022/01/16 03:11:39;;;;;;;;;;;1.80;99.90;;;;;;5109931;28;19922;-74
2022/01/16 03:14:11;;;;;;;;;;;1.80;99.90;;;;;;5110114;28;19916;-73
2022/01/16 03:16:37;;;;;;;;;;;1.80;99.90;;;;;;5110126;28;19966;-73
2022/01/16 03:21:57;;;;;;;;;;;1.80;99.90;;;;;;5112244;28;19961;-73
2022/01/16 03:24:33;;;;;;;;;;;1.80;99.90;;;;;;5116403;28;20029;-75
2022/01/16 03:27:18;;;;;;;;;;;1.80;99.90;;;;;;5112107;28;19926;-73
2022/01/16 03:29:45;;;;;;;;;;;1.80;99.90;;;;;;5095759;28;20386;-74
2022/01/16 03:32:16;;;;;;;;;;;1.90;99.90;;;;;;5095316;28;19982;-74
2022/01/16 03:34:41;;;;;;;;;;;1.80;99.90;;;;;;5095155;28;19916;-74
2022/01/16 03:37:07;;;;;;;;;;;1.80;99.90;;;;;;5100211;28;19918;-75
2022/01/16 03:39:33;;;;;;;;;;;1.80;99.90;;;;;;5113770;28;20298;-73
2022/01/16 03:42:00;;;;;;;;;;;1.80;99.90;;;;;;5115557;28;19977;-74
2022/01/16 03:44:26;;;;;;;;;;;1.80;99.90;;;;;;5115853;28;19920;-74
2022/01/16 03:46:52;;;;;;;;;;;1.80;99.90;;;;;;5114136;28;19918;-74
2022/01/16 03:49:19;;;;;;;;;;;1.80;99.90;;;;;;5114006;28;19920;-74
2022/01/16 03:51:46;;;;;;;;;;;1.80;99.90;;;;;;5113929;28;20376;-75
2022/01/16 03:54:12;;;;;;;;;;;1.80;99.90;;;;;;5115477;28;19926;-74
2022/01/16 03:56:38;;;;;;;;;;;1.90;99.90;;;;;;5114300;28;20256;-74
2022/01/16 03:59:04;;;;;;;;;;;1.90;99.90;;;;;;5095016;28;19923;-74
2022/01/16 04:01:29;;;;;;;;;;;1.90;99.90;;;;;;5095027;28;20303;-74
2022/01/16 04:03:55;;;;;;;;;;;1.90;99.90;;;;;;5113521;28;19968;-75
2022/01/16 04:06:21;;;;;;;;;;;1.80;99.90;;;;;;5115105;28;19919;-75
2022/01/16 04:08:47;;;;;;;;;;;1.80;99.90;;;;;;5115118;28;19923;-76
2022/01/16 04:11:13;;;;;;;;;;;1.80;99.90;;;;;;5113835;28;19930;-75
2022/01/16 04:13:48;;;;;;;;;;;1.80;99.90;;;;;;5096105;28;19924;-74
2022/01/16 04:16:13;;;;;;;;;;;1.80;99.90;;;;;;5093419;28;19915;-74
2022/01/16 04:18:42;;;;;;;;;;;1.80;99.90;;;;;;5112402;28;19923;-74
2022/01/16 04:21:07;;;;;;;;;;;1.80;99.90;;;;;;5115136;28;19919;-76
2022/01/16 04:23:33;;;;;;;;;;;1.80;99.90;;;;;;5097417;28;19920;-74
2022/01/16 04:25:58;;;;;;;;;;;1.80;99.90;;;;;;5094232;28;20271;-74
2022/01/16 04:28:25;;;;;;;;;;;1.90;99.90;;;;;;5109953;28;20260;-74
2022/01/16 04:30:51;;;;;;;;;;;1.70;99.90;;;;;;5113729;28;20006;-74
2022/01/16 04:33:17;;;;;;;;;;;0.80;99.90;;;;;;5098148;28;19943;-76
2022/01/16 04:35:43;;;;;;;;;;;1.70;99.90;;;;;;5092817;28;19908;-75
2022/01/16 04:38:08;;;;;;;;;;;1.70;99.90;;;;;;5092466;28;19974;-74
2022/01/16 04:40:43;;;;;;;;;;;1.70;99.90;;;;;;5092878;28;19995;-74
2022/01/16 04:45:57;;;;;;;;;;;1.60;99.90;;;;;;5114983;28;19953;-74
2022/01/16 04:48:23;;;;;;;;;;;1.70;99.90;;;;;;5097186;28;19920;-75
2022/01/16 04:50:49;;;;;;;;;;;1.70;99.90;;;;;;5092826;28;19912;-74
2022/01/16 04:53:17;;;;;;;;;;;1.70;99.90;;;;;;5108219;28;19915;-74
2022/01/16 04:55:43;;;;;;;;;;;1.70;99.90;;;;;;5112721;28;19907;-74
2022/01/16 04:58:09;;;;;;;;;;;1.70;99.90;;;;;;5113688;28;20002;-75
2022/01/16 05:00:34;;;;;;;;;;;1.70;99.90;;;;;;5112865;28;20369;-74
2022/01/16 05:03:00;;;;;;;;;;;1.70;99.90;;;;;;5112232;28;19957;-75
2022/01/16 05:05:25;;;;;;;;;;;1.70;99.90;;;;;;5113713;28;19908;-74
2022/01/16 05:07:51;;;;;;;;;;;1.70;99.90;;;;;;5113561;28;19908;-73
2022/01/16 05:10:16;;;;;;;;;;;1.70;99.90;;;;;;5112477;28;19912;-73
2022/01/16 05:12:45;;;;;;;;;;;1.70;99.90;;;;;;5111218;28;20012;-73
2022/01/16 05:17:55;;;;;;;;;;;1.70;99.90;;;;;;5108501;28;20045;-74
2022/01/16 05:20:20;;;;;;;;;;;1.70;99.90;;;;;;5092028;28;19994;-75
2022/01/16 05:22:46;;;;;;;;;;;1.70;99.90;;;;;;5103662;28;19936;-74
2022/01/16 05:25:14;;;;;;;;;;;1.70;99.90;;;;;;5113782;28;19908;-73
2022/01/16 05:27:40;;;;;;;;;;;1.70;99.90;;;;;;5112903;28;19915;-74
2022/01/16 05:30:06;;;;;;;;;;;1.70;99.90;;;;;;5111968;28;19994;-74
2022/01/16 05:32:32;;;;;;;;;;;1.70;99.90;;;;;;5112023;28;19911;-74
2022/01/16 05:34:57;;;;;;;;;;;1.70;99.90;;;;;;5113782;28;20244;-74
2022/01/16 05:37:23;;;;;;;;;;;1.70;99.90;;;;;;5104721;28;20019;-74
2022/01/16 05:39:49;;;;;;;;;;;1.70;99.90;;;;;;5092851;28;19934;-74
2022/01/16 05:42:15;;;;;;;;;;;1.60;99.90;;;;;;5086699;28;20360;-74
2022/01/16 05:44:40;;;;;;;;;;;1.60;99.90;;;;;;5071985;28;19917;-74
2022/01/16 05:47:12;;;;;;;;;;;1.60;99.90;;;;;;5072607;28;19919;-74
2022/01/16 05:49:39;;;;;;;;;;;1.60;99.90;;;;;;5071349;28;19916;-74
2022/01/16 05:52:05;;;;;;;;;;;1.70;99.90;;;;;;5080618;28;20073;-74
2022/01/16 05:54:31;;;;;;;;;;;1.60;99.90;;;;;;5113385;28;20003;-76
2022/01/16 05:56:56;;;;;;;;;;;1.60;99.90;;;;;;5111212;28;20279;-73
2022/01/16 05:59:22;;;;;;;;;;;1.60;99.90;;;;;;5113474;28;19920;-75
2022/01/16 06:01:47;;;;;;;;;;;1.60;99.90;;;;;;5108284;28;19917;-73
2022/01/16 06:04:13;;;;;;;;;;;1.60;99.90;;;;;;5092839;28;19931;-74
2022/01/16 06:06:39;;;;;;;;;;;1.60;99.90;;;;;;5091905;28;20256;-75
2022/01/16 06:09:04;;;;;;;;;;;1.60;99.90;;;;;;5111458;28;19951;-74
2022/01/16 06:11:32;;;;;;;;;;;1.60;99.90;;;;;;5111947;28;19912;-74
2022/01/16 06:13:58;;;;;;;;;;;1.60;99.90;;;;;;5091100;28;20372;-74
2022/01/16 06:16:24;;;;;;;;;;;1.60;99.90;;;;;;5090864;28;19914;-74
2022/01/16 06:18:49;;;;;;;;;;;1.50;99.90;;;;;;5109878;28;19947;-74
2022/01/16 06:21:15;;;;;;;;;;;1.60;99.90;;;;;;5112671;28;20424;-74
2022/01/16 06:23:40;;;;;;;;;;;1.60;99.90;;;;;;5092575;28;20382;-74
2022/01/16 06:26:07;;;;;;;;;;;1.60;99.90;;;;;;5091792;28;20363;-74
2022/01/16 06:28:33;;;;;;;;;;;1.60;99.90;;;;;;5091735;28;19966;-74
2022/01/16 06:30:59;;;;;;;;;;;1.60;99.90;;;;;;5091671;28;20526;-74
2022/01/16 06:33:25;;;;;;;;;;;1.60;99.90;;;;;;5107599;28;20013;-74
2022/01/16 06:35:50;;;;;;;;;;;1.60;99.90;;;;;;5111892;28;19950;-73
2022/01/16 06:38:16;;;;;;;;;;;1.60;99.90;;;;;;5096829;28;19924;-74
2022/01/16 06:40:42;;;;;;;;;;;1.50;99.90;;;;;;5091667;28;20016;-75
2022/01/16 06:43:08;;;;;;;;;;;1.70;99.90;;;;;;5103743;28;19927;-74
2022/01/16 06:45:34;;;;;;;;;;;1.70;99.90;;;;;;5111985;28;19908;-75
2022/01/16 06:48:00;;;;;;;;;;;1.70;99.90;;;;;;5111468;28;20015;-76
2022/01/16 06:50:26;;;;;;;;;;;1.70;99.90;;;;;;5112238;28;20021;-74
2022/01/16 06:52:51;;;;;;;;;;;1.60;99.90;;;;;;5098949;28;19908;-74
2022/01/16 06:55:17;;;;;;;;;;;1.60;99.90;;;;;;5091632;28;19919;-75
2022/01/16 06:57:43;;;;;;;;;;;1.60;99.90;;;;;;5090367;28;19908;-73
2022/01/16 07:00:09;;;;;;;;;;;1.60;99.90;;;;;;5089836;28;19912;-74
2022/01/16 07:02:37;;;;;;;;;;;1.60;99.90;;;;;;5090011;28;19923;-74
2022/01/16 07:05:07;;;;;;;;;;;3.80;99.90;;;;;;5091965;28;19916;-74
2022/01/16 07:07:32;;;;;;;;;;;1.60;99.90;;;;;;5089811;28;19988;-74
2022/01/16 07:10:03;;;;;;;;;;;1.60;99.90;;;;;;5090084;28;20461;-75
2022/01/16 07:12:29;;;;;;;;;;;1.60;99.90;;;;;;5090970;28;19981;-74
2022/01/16 07:14:55;;;;;;;;;;;1.60;99.90;;;;;;5090376;28;19920;-75
2022/01/16 07:17:21;;;;;;;;;;;1.60;99.90;;;;;;5089592;28;19908;-75
2022/01/16 07:19:46;;;;;;;;;;;1.60;99.90;;;;;;5092012;28;20420;-74
2022/01/16 07:22:21;;;;;;;;;;;1.60;99.90;;;;;;5089722;28;19911;-74
2022/01/16 07:24:48;;;;;;;;;;;1.60;99.90;;;;;;5091771;28;20363;-74
2022/01/16 07:27:13;;;;;;;;;;;1.60;99.90;;;;;;5095469;28;19947;-74
2022/01/16 07:29:39;;;;;;;;;;;1.60;99.90;;;;;;5111551;28;19974;-74
2022/01/16 07:32:06;;;;;;;;;;;1.60;99.90;;;;;;5111495;28;20317;-77
2022/01/16 07:34:32;;;;;;;;;;;1.60;99.90;;;;;;5111365;28;19947;-74
2022/01/16 07:36:58;;;;;;;;;;;1.60;99.90;;;;;;5111253;28;19957;-73
2022/01/16 07:39:23;;;;;;;;;;;1.60;99.90;;;;;;5109809;28;19924;-74
2022/01/16 07:41:49;;;;;;;;;;;1.60;99.90;;;;;;5111714;28;20327;-75
2022/01/16 07:44:14;;;;;;;;;;;1.70;99.90;;;;;;5110146;28;19919;-75
2022/01/16 07:46:40;;;;;;;;;;;1.70;99.90;;;;;;5111337;28;20002;-74
2022/01/16 07:49:06;;;;;;;;;;;1.70;99.90;;;;;;5111368;28;19916;-75
2022/01/16 07:51:32;;;;;;;;;;;1.70;99.90;;;;;;5111297;28;19929;-74
2022/01/16 07:53:58;;;;;;;;;;;1.70;99.90;;;;;;5110230;28;19922;-74
2022/01/16 07:56:23;;;;;;;;;;;1.70;99.90;;;;;;5111030;28;19912;-74
2022/01/16 07:58:49;;;;;;;;;;;1.70;99.90;;;;;;5110898;28;19971;-75
2022/01/16 08:01:14;;;;;;;;;;;1.80;99.90;;;;;;5109827;28;19908;-74
2022/01/16 08:03:40;;;;;;;;;;;1.70;99.90;;;;;;5109074;28;19927;-74
2022/01/16 08:06:06;;;;;;;;;;;1.70;99.90;;;;;;5110007;28;20018;-74
2022/01/16 08:08:31;;;;;;;;;;;1.80;99.90;;;;;;5093970;28;19939;-76
2022/01/16 08:10:57;;;;;;;;;;;1.70;99.90;;;;;;5094930;28;19915;-75
2022/01/16 08:13:22;;;;;;;;;;;1.70;99.90;;;;;;5108638;28;19922;-74
2022/01/16 08:15:48;;;;;;;;;;;1.70;99.90;;;;;;5113749;28;20300;-76
2022/01/16 08:18:14;;;;;;;;;;;1.70;99.90;;;;;;5100181;28;19916;-74
2022/01/16 08:20:43;;;;;;;;;;;1.70;99.90;;;;;;5093901;28;19982;-75
2022/01/16 08:23:11;;;;;;;;;;;1.70;99.90;;;;;;5093356;28;20002;-74
2022/01/16 08:25:37;;;;;;;;;;;1.70;99.90;;;;;;5093954;28;20424;-76
2022/01/16 08:28:03;;;;;;;;;;;1.80;99.90;;;;;;5107086;28;20126;-74
2022/01/16 08:30:28;;;;;;;;;;;1.80;99.90;;;;;;5113565;28;19916;-73
2022/01/16 08:32:54;;;;;;;;;;;1.80;99.90;;;;;;5114742;28;19995;-74
2022/01/16 08:35:19;;;;;;;;;;;1.80;99.90;;;;;;5113203;28;20332;-73
2022/01/16 08:37:45;;;;;;;;;;;1.80;99.90;;;;;;5114485;28;19998;-74
2022/01/16 08:40:11;;;;;;;;;;;1.80;99.90;;;;;;5114574;28;19923;-75
2022/01/16 08:42:37;;;;;;;;;;;1.90;99.90;;;;;;5113345;28;19915;-76
2022/01/16 08:45:03;;;;;;;;;;;1.90;99.90;;;;;;5115053;28;19947;-75
2022/01/16 08:47:29;;;;;;;;;;;1.90;99.90;;;;;;5107149;28;19908;-75
2022/01/16 08:49:55;;;;;;;;;;;1.90;99.90;;;;;;5093975;28;20398;-74
2022/01/16 08:52:21;;;;;;;;;;;1.90;99.90;;;;;;5100674;28;20396;-74
2022/01/16 08:54:47;;;;;;;;;;;1.90;99.90;;;;;;5113222;28;19908;-74
2022/01/16 08:57:13;;;;;;;;;;;2.00;99.90;;;;;;5108420;28;19926;-74
2022/01/16 08:59:39;;;;;;;;;;;2.00;99.90;;;;;;5093500;28;20260;-74
2022/01/16 09:02:05;;;;;;;;;;;2.00;99.90;;;;;;5096783;28;19943;-74
2022/01/16 09:04:30;;;;;;;;;;;2.00;99.90;;;;;;5113809;28;19951;-74
2022/01/16 09:06:56;;;;;;;;;;;1.90;99.90;;;;;;5111254;28;19923;-74
2022/01/16 09:09:21;;;;;;;;;;;1.90;99.90;;;;;;5093778;28;19912;-74
2022/01/16 09:11:47;;;;;;;;;;;2.00;99.90;;;;;;5094329;28;20410;-74
2022/01/16 09:14:14;;;;;;;;;;;2.00;99.90;;;;;;5094029;28;20018;-74
2022/01/16 09:16:40;;;;;;;;;;;2.10;99.90;;;;;;5095094;28;20673;-75
2022/01/16 09:19:06;;;;;;;;;;;2.20;99.90;;;;;;5097393;27;19912;-73
2022/01/16 09:21:32;;;;;;;;;;;2.20;99.90;;;;;;5091970;28;20390;-75
2022/01/16 09:23:59;;;;;;;;;;;2.20;99.90;;;;;;5113948;28;19998;-75
2022/01/16 09:26:26;;;;;;;;;;;2.10;99.90;;;;;;5114044;28;19923;-72
2022/01/16 09:28:51;;;;;;;;;;;2.00;99.90;;;;;;5112959;28;19954;-75
2022/01/16 09:31:17;;;;;;;;;;;2.00;99.90;;;;;;5113634;28;20006;-74
2022/01/16 09:33:43;;;;;;;;;;;2.00;99.90;;;;;;5113160;28;20001;-73
2022/01/16 09:36:09;;;;;;;;;;;2.00;99.90;;;;;;5113479;28;19916;-73
2022/01/16 09:38:35;;;;;;;;;;;2.00;99.90;;;;;;5112889;28;19915;-74
2022/01/16 09:41:01;;;;;;;;;;;2.00;99.90;;;;;;5112818;28;19923;-73
2022/01/16 09:43:27;;;;;;;;;;;2.00;99.90;;;;;;5111419;28;20457;-73
2022/01/16 09:45:53;;;;;;;;;;;2.00;99.90;;;;;;5113164;28;20018;-74
2022/01/16 09:48:19;;;;;;;;;;;2.00;99.90;;;;;;5111472;28;19960;-74
2022/01/16 09:50:45;;;;;;;;;;;2.00;99.90;;;;;;5113114;28;19916;-73
2022/01/16 09:53:12;;;;;;;;;;;2.10;99.90;;;;;;5098870;28;19915;-74
2022/01/16 09:55:39;;;;;;;;;;;2.20;99.90;;;;;;5091230;28;19924;-75
2022/01/16 09:58:04;;;;;;;;;;;2.10;99.90;;;;;;5092728;28;20448;-75
2022/01/16 10:00:30;;;;;;;;;;;2.00;99.90;;;;;;5091417;28;19916;-73
2022/01/16 10:02:56;;;;;;;;;;;2.00;99.90;;;;;;5091066;28;19927;-74
2022/01/16 10:05:27;;;;;;;;;;;2.00;99.90;;;;;;5092346;28;20387;-74
2022/01/16 10:07:54;;;;;;;;;;;2.00;99.90;;;;;;5081109;28;19952;-74
2022/01/16 10:10:23;;;;;;;;;;;2.00;99.90;;;;;;5070726;28;19912;-74
2022/01/16 10:12:52;;;;;;;;;;;2.10;99.90;;;;;;5093052;28;19919;-75
2022/01/16 10:15:27;;;;;;;;;;;2.10;99.90;;;;;;5112882;28;19953;-74
2022/01/16 10:17:54;;;;;;;;;;;2.10;99.90;;;;;;5112560;28;20314;-74
2022/01/16 10:20:21;;;;;;;;;;;2.10;99.90;;;;;;5112350;28;19911;-75
2022/01/16 10:22:48;;;;;;;;;;;2.00;99.90;;;;;;5102386;28;20351;-74
2022/01/16 10:25:18;;;;;;;;;;;2.00;99.90;;;;;;5092290;28;19908;-73
2022/01/16 10:27:45;;;;;;;;;;;2.00;99.90;;;;;;5100510;28;19916;-74
2022/01/16 10:30:14;;;;;;;;;;;2.00;99.90;;;;;;5094322;28;20380;-74
2022/01/16 10:32:41;;;;;;;;;;;2.00;99.90;;;;;;5110737;28;20244;-74
2022/01/16 10:35:08;;;;;;;;;;;2.00;99.90;;;;;;5112531;28;19915;-73
2022/01/16 10:37:34;;;;;;;;;;;2.20;99.90;;;;;;5103257;28;19919;-73
2022/01/16 10:40:09;;;;;;;;;;;2.10;99.90;;;;;;5091297;28;19928;-73
2022/01/16 10:42:35;;;;;;;;;;;2.10;99.90;;;;;;5098912;28;20003;-73
2022/01/16 10:45:07;;;;;;;;;;;2.10;99.90;;;;;;5110619;28;20374;-76
2022/01/16 10:47:33;;;;;;;;;;;2.10;99.90;;;;;;5110894;28;19914;-73
2022/01/16 10:49:59;;;;;;;;;;;2.10;99.90;;;;;;5112255;28;20290;-76
2022/01/16 10:52:25;;;;;;;;;;;2.10;99.90;;;;;;5104882;28;19915;-75
2022/01/16 10:54:51;;;;;;;;;;;2.10;99.90;;;;;;5092044;28;19920;-76
2022/01/16 10:57:17;;;;;;;;;;;2.10;99.90;;;;;;5098102;28;19908;-74
2022/01/16 10:59:43;;;;;;;;;;;2.10;99.90;;;;;;5110311;28;20379;-75
2022/01/16 11:02:09;;;;;;;;;;;2.10;99.90;;;;;;5105006;28;19915;-75
2022/01/16 11:04:35;;;;;;;;;;;1.90;99.90;;;;;;5089852;28;19963;-74
2022/01/16 11:07:02;;;;;;;;;;;2.00;99.90;;;;;;5090206;28;19908;-74
2022/01/16 11:09:29;;;;;;;;;;;2.10;99.90;;;;;;5090253;28;20004;-75
2022/01/16 11:12:01;;;;;;;;;;;2.10;99.90;;;;;;5086799;28;19956;-76
2022/01/16 11:14:28;;;;;;;;;;;2.80;99.90;;;;;;5067629;28;19927;-74
2022/01/16 11:16:57;;;;;;;;;;;2.10;99.90;;;;;;5075749;28;19911;-74
2022/01/16 11:19:24;;;;;;;;;;;2.10;99.90;;;;;;5111863;28;20400;-74
2022/01/16 11:21:57;;;;;;;;;;;2.00;99.90;;;;;;5111495;28;20409;-75
2022/01/16 11:26:51;;;;;;;;;;;2.10;99.90;;;;;;5111962;28;19930;-76
2022/01/16 11:29:17;;;;;;;;;;;2.10;99.90;;;;;;5110197;28;20333;-74
2022/01/16 11:31:43;;;;;;;;;;;2.00;99.90;;;;;;5111425;28;19911;-74
2022/01/16 11:34:10;;;;;;;;;;;1.90;99.90;;;;;;5111814;28;20003;-73
2022/01/16 11:36:36;;;;;;;;;;;1.90;99.90;;;;;;5110172;28;19908;-75
2022/01/16 11:39:04;;;;;;;;;;;1.80;99.90;;;;;;5110284;28;19930;-75
2022/01/16 11:41:35;;;;;;;;;;;1.70;99.90;;;;;;5111390;28;19908;-74
2022/01/16 11:44:02;;;;;;;;;;;1.70;99.90;;;;;;5113490;28;19922;-75
2022/01/16 11:46:28;;;;;;;;;;;1.70;99.90;;;;;;5115792;28;20303;-74
2022/01/16 11:49:05;;;;;;;;;;;1.60;99.90;;;;;;5115589;28;19908;-75
2022/01/16 11:51:39;;;;;;;;;;;1.60;99.90;;;;;;5113719;28;20026;-75
2022/01/16 11:54:09;;;;;;;;;;;1.60;99.90;;;;;;5115725;28;19920;-75
2022/01/16 11:56:41;;;;;;;;;;;1.60;99.90;;;;;;5114023;28;19912;-74
2022/01/16 11:59:21;;;;;;;;;;;1.70;99.90;;;;;;5115332;28;19924;-75
2022/01/16 12:01:46;;;;;;;;;;;1.80;99.90;;;;;;5113214;28;19919;-74
2022/01/16 12:04:28;;;;;;;;;;;1.80;99.90;;;;;;5093667;28;19924;-75
2022/01/16 12:07:12;;;;;;;;;;;1.90;99.90;;;;;;5096013;28;19907;-78
2022/01/16 12:09:40;;;;;;;;;;;2.00;99.90;;;;;;5114448;28;19916;-75
2022/01/16 12:12:12;;;;;;;;;;;2.00;99.90;;;;;;5110270;28;19939;-73
2022/01/16 12:14:50;;;;;;;;;;;2.10;99.90;;;;;;5094242;28;19916;-75
2022/01/16 12:17:35;;;;;;;;;;;2.10;99.90;;;;;;5099082;28;19912;-75
2022/01/16 12:20:13;;;;;;;;;;;2.10;99.90;;;;;;5113391;28;19920;-76
2022/01/16 12:22:46;;;;;;;;;;;2.10;99.90;;;;;;5104137;28;19919;-75
2022/01/16 12:25:16;;;;;;;;;;;2.00;99.90;;;;;;5093386;28;20008;-74
2022/01/16 12:27:46;;;;;;;;;;;2.10;99.90;;;;;;5102259;28;19951;-74
2022/01/16 12:30:13;;;;;;;;;;;1.90;99.90;;;;;;5115069;28;19919;-75
2022/01/16 12:32:51;;;;;;;;;;;1.90;99.90;;;;;;5114087;28;19914;-76
2022/01/16 12:35:35;;;;;;;;;;;1.90;99.90;;;;;;5114663;28;19923;-75
2022/01/16 12:38:04;;;;;;;;;;;1.90;99.90;;;;;;5114491;28;19919;-75
2022/01/16 12:40:30;;;;;;;;;;;1.90;99.90;;;;;;5114495;28;19927;-75
2022/01/16 12:42:56;;;;;;;;;;;1.70;99.90;;;;;;5102642;28;20374;-74
2022/01/16 12:45:22;;;;;;;;;;;1.70;99.90;;;;;;5093157;28;19922;-75
2022/01/16 12:47:48;;;;;;;;;;;1.70;99.90;;;;;;5104738;28;19911;-75
2022/01/16 12:50:14;;;;;;;;;;;1.70;99.90;;;;;;5113293;28;20308;-74
2022/01/16 12:52:47;;;;;;;;;;;1.70;99.90;;;;;;5114560;28;20579;-76
2022/01/16 12:55:13;;;;;;;;;;;1.70;99.90;;;;;;5113077;28;19916;-76
2022/01/16 12:57:38;;;;;;;;;;;1.80;99.90;;;;;;5113471;28;19908;-75
2022/01/16 13:00:11;;;;;;;;;;;1.70;99.90;;;;;;5113143;28;19911;-73
2022/01/16 13:02:37;;;;;;;;;;;1.70;99.90;;;;;;5113916;28;20390;-74
2022/01/16 13:05:05;;;;;;;;;;;1.80;99.90;;;;;;5114563;28;19919;-74
2022/01/16 13:07:31;;;;;;;;;;;1.70;99.90;;;;;;5113812;28;19961;-76
2022/01/16 13:09:57;;;;;;;;;;;1.70;99.90;;;;;;5112545;28;19911;-75
2022/01/16 13:12:22;;;;;;;;;;;1.60;99.90;;;;;;5114174;28;19919;-76
2022/01/16 13:14:48;;;;;;;;;;;1.60;99.90;;;;;;5114737;28;19912;-76
2022/01/16 13:17:14;;;;;;;;;;;1.60;99.90;;;;;;5112715;28;20370;-74
2022/01/16 13:20:02;;;;;;;;;;;1.50;99.90;;;;;;5114434;28;20451;-73
2022/01/16 13:22:29;;;;;;;;;;;1.40;99.90;;;;;;5113196;28;19943;-74
2022/01/16 13:24:55;;;;;;;;;;;1.30;99.90;;;;;;5112365;28;19915;-74
2022/01/16 13:27:28;;;;;;;;;;;1.40;99.90;;;;;;5113679;28;19920;-74
2022/01/16 13:29:56;;;;;;;;;;;1.30;99.90;;;;;;5112216;28;20393;-75
2022/01/16 13:32:25;;;;;;;;;;;1.40;99.90;;;;;;5113546;28;19956;-76
2022/01/16 13:34:55;;;;;;;;;;;1.30;99.90;;;;;;5112927;28;19934;-74
2022/01/16 13:37:25;;;;;;;;;;;1.30;99.90;;;;;;5106058;28;19916;-76
2022/01/16 13:40:11;;;;;;;;;;;1.30;99.90;;;;;;5093349;28;19930;-77
2022/01/16 13:45:22;;;;;;;;;;;1.20;99.90;;;;;;5114475;28;19973;-78
2022/01/16 13:47:51;;;;;;;;;;;1.20;99.90;;;;;;5113685;28;19964;-75
2022/01/16 13:50:17;;;;;;;;;;;1.20;99.90;;;;;;5111934;28;19922;-76
2022/01/16 13:52:55;;;;;;;;;;;1.30;99.90;;;;;;5111562;28;20342;-76
2022/01/16 13:55:21;;;;;;;;;;;1.20;99.90;;;;;;5113244;28;19927;-75
2022/01/16 13:57:47;;;;;;;;;;;1.20;99.90;;;;;;5111857;28;19911;-75
2022/01/16 14:00:13;;;;;;;;;;;1.10;99.90;;;;;;5113531;28;19949;-73
2022/01/16 14:02:38;;;;;;;;;;;1.10;99.90;;;;;;5112002;28;19915;-74
2022/01/16 14:05:05;;;;;;;;;;;1.10;99.90;;;;;;5113402;28;19919;-76
2022/01/16 14:07:31;;;;;;;;;;;1.10;99.90;;;;;;5112800;28;19911;-75
2022/01/16 14:09:56;;;;;;;;;;;1.10;99.90;;;;;;5113484;28;20007;-73
2022/01/16 14:12:23;;;;;;;;;;;1.20;99.90;;;;;;5111350;28;19923;-75
2022/01/16 14:14:49;;;;;;;;;;;1.20;99.90;;;;;;5112997;28;19912;-74
2022/01/16 14:19:53;;;;;;;;;;;1.00;99.90;;;;;;5112665;28;20282;-75
2022/01/16 14:22:21;;;;;;;;;;;1.00;99.90;;;;;;5110867;28;20014;-75
2022/01/16 14:24:51;;;;;;;;;;;0.90;99.90;;;;;;5111314;28;19911;-74
2022/01/16 14:27:19;;;;;;;;;;;0.80;99.90;;;;;;5112876;28;19941;-75
2022/01/16 14:29:45;;;;;;;;;;;0.80;99.90;;;;;;5112135;28;19999;-75
2022/01/16 14:32:13;;;;;;;;;;;0.90;99.90;;;;;;5106858;28;19917;-75
2022/01/16 14:34:40;;;;;;;;;;;0.90;99.90;;;;;;5090936;28;20007;-74
2022/01/16 14:37:07;;;;;;;;;;;0.90;99.90;;;;;;5095668;28;20147;-75
2022/01/16 14:39:33;;;;;;;;;;;0.90;99.90;;;;;;5110797;28;19967;-75
2022/01/16 14:41:59;;;;;;;;;;;0.90;99.90;;;;;;5112440;28;20428;-75
2022/01/16 14:44:26;;;;;;;;;;;0.90;99.90;;;;;;5112050;28;19912;-74
2022/01/16 14:46:55;;;;;;;;;;;0.90;99.90;;;;;;5110652;28;22749;-74
2022/01/16 14:49:21;;;;;;;;;;;0.90;99.90;;;;;;5111323;28;20375;-74
2022/01/16 14:51:47;;;;;;;;;;;0.90;99.90;;;;;;5111047;28;19947;-76
2022/01/16 14:54:12;;;;;;;;;;;0.90;99.90;;;;;;5112597;28;19908;-74
2022/01/16 14:56:38;;;;;;;;;;;0.90;99.90;;;;;;5111324;28;19924;-76
2022/01/16 14:59:05;;;;;;;;;;;0.80;99.90;;;;;;5111012;28;19908;-74
2022/01/16 15:01:30;;;;;;;;;;;0.80;99.90;;;;;;5110894;28;19951;-76
2022/01/16 15:03:56;;;;;;;;;;;0.80;99.90;;;;;;5112108;28;19958;-74
2022/01/16 15:06:25;;;;;;;;;;;0.80;99.90;;;;;;5110795;28;19916;-75
2022/01/16 15:08:51;;;;;;;;;;;0.80;99.90;;;;;;5111999;28;19980;-75
2022/01/16 15:11:17;;;;;;;;;;;0.80;99.90;;;;;;5111032;28;20359;-75
2022/01/16 15:13:43;;;;;;;;;;;0.70;99.90;;;;;;5110216;28;19908;-74
2022/01/16 15:16:12;;;;;;;;;;;0.60;99.90;;;;;;5112124;28;19916;-74
2022/01/16 15:18:39;;;;;;;;;;;0.60;99.90;;;;;;5109729;28;19919;-77
2022/01/16 15:21:05;;;;;;;;;;;0.60;99.90;;;;;;5112344;28;19922;-75